Time;durP1;ratioP1;P1;durP2;ratioP2;P2;SDS_P1;SDS_P2;PMS_P1;PMS_P2;Temp;Humidity;BMP_temperature;BMP_pressure;BME280_temperature;BME280_humidity;BME280_pressure;Samples;Min_cycle;Max_cycle;Signal;HPM_P1;HPM_P2
2022/11/26 00:01:16;;;;;;;30.75;11.07;;;5.20;99.90;;;;;;5004336;28;20049;-68
2022/11/26 00:03:43;;;;;;;27.83;10.30;;;5.20;99.90;;;;;;5000905;28;20088;-68
2022/11/26 00:06:29;;;;;;;23.08;8.88;;;5.30;99.90;;;;;;5002193;28;20048;-68
2022/11/26 00:08:55;;;;;;;34.08;10.40;;;5.30;99.90;;;;;;5006938;28;20517;-68
2022/11/26 00:11:21;;;;;;;24.38;10.57;;;5.40;99.90;;;;;;5004305;28;20092;-68
2022/11/26 00:13:46;;;;;;;27.70;11.40;;;5.30;99.90;;;;;;4999329;28;20034;-69
2022/11/26 00:16:13;;;;;;;32.67;11.48;;;5.40;99.90;;;;;;5006230;28;20045;-68
2022/11/26 00:18:39;;;;;;;26.80;11.60;;;5.40;99.90;;;;;;5003442;28;20081;-68
2022/11/26 00:21:12;;;;;;;27.77;11.73;;;5.30;99.90;;;;;;5002163;28;20121;-68
2022/11/26 00:23:38;;;;;;;27.33;10.75;;;5.30;99.90;;;;;;5006402;28;20092;-68
2022/11/26 00:26:09;;;;;;;25.48;10.52;;;5.30;99.90;;;;;;4997288;28;20038;-68
2022/11/26 00:28:37;;;;;;;25.05;10.55;;;5.30;99.90;;;;;;5001895;28;20042;-68
2022/11/26 00:31:11;;;;;;;25.70;10.13;;;5.20;99.90;;;;;;5002822;28;20506;-68
2022/11/26 00:33:36;;;;;;;30.52;10.77;;;5.20;99.90;;;;;;5003130;28;20044;-68
2022/11/26 00:36:14;;;;;;;32.08;11.65;;;5.10;99.90;;;;;;4995691;28;20400;-68
2022/11/26 00:38:40;;;;;;;27.98;11.70;;;5.10;99.90;;;;;;5004059;28;20417;-68
2022/11/26 00:41:15;;;;;;;29.90;10.45;;;5.20;99.90;;;;;;5016753;28;20050;-68
2022/11/26 00:43:41;;;;;;;30.25;12.15;;;5.10;99.90;;;;;;5000190;28;20497;-68
2022/11/26 00:46:14;;;;;;;25.42;10.23;;;5.10;99.90;;;;;;5002691;28;20041;-68
2022/11/26 00:48:40;;;;;;;26.13;11.30;;;5.10;99.90;;;;;;5007453;28;20095;-68
2022/11/26 00:51:07;;;;;;;29.30;11.23;;;5.10;99.90;;;;;;5005034;28;20034;-68
2022/11/26 00:53:33;;;;;;;26.75;11.65;;;5.10;99.90;;;;;;5002702;28;20504;-68
2022/11/26 00:55:58;;;;;;;31.20;11.98;;;5.00;99.90;;;;;;4984965;28;20037;-68
2022/11/26 00:58:27;;;;;;;29.27;12.32;;;5.10;99.90;;;;;;5001334;28;20080;-68
2022/11/26 01:00:54;;;;;;;31.92;12.18;;;5.00;99.90;;;;;;5002579;28;20133;-68
2022/11/26 01:03:20;;;;;;;28.50;12.65;;;5.00;99.90;;;;;;4998843;28;20042;-68
2022/11/26 01:05:52;;;;;;;27.90;11.73;;;5.00;99.90;;;;;;4997048;28;20041;-68
2022/11/26 01:08:30;;;;;;;31.83;12.05;;;5.00;99.90;;;;;;4995334;28;20030;-68
2022/11/26 01:10:57;;;;;;;29.00;12.15;;;5.00;99.90;;;;;;5000591;28;20038;-68
2022/11/26 01:13:23;;;;;;;24.27;10.68;;;5.00;99.90;;;;;;4995563;28;20055;-68
2022/11/26 01:15:49;;;;;;;33.70;12.63;;;4.90;99.90;;;;;;4998879;28;21114;-68
2022/11/26 01:18:19;;;;;;;34.38;13.10;;;4.90;99.90;;;;;;5019720;28;20050;-68
2022/11/26 01:20:45;;;;;;;29.23;12.50;;;4.80;99.90;;;;;;5005560;28;20038;-68
2022/11/26 01:23:13;;;;;;;32.60;12.02;;;4.80;99.90;;;;;;5005109;28;20050;-68
2022/11/26 01:25:40;;;;;;;28.60;12.73;;;4.90;99.90;;;;;;5006824;28;20038;-69
2022/11/26 01:28:10;;;;;;;26.23;11.88;;;4.90;99.90;;;;;;4999735;28;20041;-68
2022/11/26 01:30:35;;;;;;;29.33;11.73;;;4.90;99.90;;;;;;5014870;28;20449;-68
2022/11/26 01:33:01;;;;;;;32.03;13.85;;;4.90;99.90;;;;;;5011852;28;20030;-68
2022/11/26 01:35:27;;;;;;;35.45;13.07;;;4.90;99.90;;;;;;4984978;28;20034;-68
2022/11/26 01:37:54;;;;;;;30.75;12.40;;;4.90;99.90;;;;;;5015223;28;20068;-68
2022/11/26 01:40:31;;;;;;;32.95;13.15;;;4.80;99.90;;;;;;4998572;28;20037;-69
2022/11/26 01:43:04;;;;;;;32.10;12.38;;;4.80;99.90;;;;;;4997363;28;20073;-69
2022/11/26 01:45:30;;;;;;;26.10;11.75;;;4.90;99.90;;;;;;5008454;28;20050;-69
2022/11/26 01:47:56;;;;;;;29.48;11.93;;;4.90;99.90;;;;;;5005585;28;20092;-69
2022/11/26 01:50:27;;;;;;;28.80;12.88;;;4.80;99.90;;;;;;5007035;28;20125;-69
2022/11/26 01:52:56;;;;;;;37.75;12.75;;;4.90;99.90;;;;;;5007392;28;20347;-69
2022/11/26 01:55:22;;;;;;;26.42;11.88;;;4.90;99.90;;;;;;5023480;28;20038;-69
2022/11/26 01:57:49;;;;;;;36.08;12.25;;;4.90;99.90;;;;;;5004458;28;20048;-69
2022/11/26 02:00:15;;;;;;;41.45;14.50;;;4.90;99.90;;;;;;5004773;28;21023;-69
2022/11/26 02:02:42;;;;;;;26.35;12.82;;;4.90;99.90;;;;;;5001005;28;20509;-69
2022/11/26 02:05:30;;;;;;;34.42;14.00;;;4.80;99.90;;;;;;5002096;28;20042;-69
2022/11/26 02:07:56;;;;;;;33.28;12.85;;;4.80;99.90;;;;;;4998605;28;20052;-69
2022/11/26 02:10:21;;;;;;;25.83;12.32;;;4.80;99.90;;;;;;5009105;28;20121;-69
2022/11/26 02:12:48;;;;;;;35.17;13.35;;;4.90;99.90;;;;;;5007328;28;20037;-69
2022/11/26 02:15:13;;;;;;;35.63;14.35;;;4.80;99.90;;;;;;5010161;28;20469;-69
2022/11/26 02:17:50;;;;;;;35.58;14.38;;;4.90;99.90;;;;;;5000089;28;20039;-69
2022/11/26 02:20:18;;;;;;;31.48;13.43;;;4.90;99.90;;;;;;5002463;28;20077;-69
2022/11/26 02:22:50;;;;;;;30.33;12.73;;;4.80;99.90;;;;;;5002561;28;20431;-69
2022/11/26 02:25:34;;;;;;;37.60;12.95;;;4.80;99.90;;;;;;5004716;28;20176;-69
2022/11/26 02:28:11;;;;;;;31.08;13.30;;;4.80;99.90;;;;;;5003314;28;20054;-69
2022/11/26 02:30:43;;;;;;;24.48;12.05;;;4.80;99.90;;;;;;5003596;28;20038;-69
2022/11/26 02:33:22;;;;;;;29.05;11.63;;;4.80;99.90;;;;;;5019066;28;20128;-69
2022/11/26 02:35:54;;;;;;;31.90;13.97;;;4.70;99.90;;;;;;5001150;28;20038;-69
2022/11/26 02:38:23;;;;;;;28.42;13.38;;;4.70;99.90;;;;;;5001401;28;20780;-69
2022/11/26 02:40:50;;;;;;;33.88;14.07;;;4.70;99.90;;;;;;5005700;28;20057;-69
2022/11/26 02:43:17;;;;;;;27.45;12.10;;;4.70;99.90;;;;;;5007168;28;20149;-69
2022/11/26 02:45:52;;;;;;;28.00;12.65;;;4.70;99.90;;;;;;5001445;28;20042;-69
2022/11/26 02:48:23;;;;;;;30.60;13.18;;;4.70;99.90;;;;;;5004343;28;20037;-69
2022/11/26 02:50:56;;;;;;;35.80;13.43;;;4.70;99.90;;;;;;4991423;28;20034;-69
2022/11/26 02:53:24;;;;;;;32.15;12.82;;;4.60;99.90;;;;;;5003583;28;20048;-69
2022/11/26 02:56:09;;;;;;;32.03;13.15;;;4.60;99.90;;;;;;5006227;28;20038;-69
2022/11/26 02:58:35;;;;;;;28.33;12.60;;;4.60;99.90;;;;;;5004418;28;20132;-69
2022/11/26 03:01:04;;;;;;;31.52;14.00;;;4.60;99.90;;;;;;5006150;28;20034;-69
2022/11/26 03:03:42;;;;;;;31.00;12.77;;;4.60;99.90;;;;;;4994562;28;20053;-69
2022/11/26 03:06:11;;;;;;;30.65;13.20;;;4.50;99.90;;;;;;4998773;28;22651;-69
2022/11/26 03:08:37;;;;;;;26.10;12.02;;;4.50;99.90;;;;;;4995646;28;20050;-69
2022/11/26 03:11:03;;;;;;;33.53;13.50;;;4.50;99.90;;;;;;4997904;28;20076;-69
2022/11/26 03:13:29;;;;;;;25.50;12.18;;;4.50;99.90;;;;;;5005420;28;20425;-69
2022/11/26 03:15:55;;;;;;;29.50;11.90;;;4.50;99.90;;;;;;5007297;28;20049;-69
2022/11/26 03:18:20;;;;;;;27.02;13.60;;;4.50;99.90;;;;;;5007195;28;20041;-69
2022/11/26 03:20:46;;;;;;;29.13;12.82;;;4.50;99.90;;;;;;4989708;28;20807;-69
2022/11/26 03:23:12;;;;;;;33.60;13.40;;;4.40;99.90;;;;;;5005477;28;20038;-69
2022/11/26 03:25:37;;;;;;;34.00;14.07;;;4.50;99.90;;;;;;4994540;28;20046;-69
2022/11/26 03:28:03;;;;;;;28.00;12.50;;;4.50;99.90;;;;;;5003909;28;20034;-69
2022/11/26 03:30:29;;;;;;;36.33;13.90;;;4.50;99.90;;;;;;5024447;28;20033;-69
2022/11/26 03:32:55;;;;;;;34.10;13.38;;;4.50;99.90;;;;;;5002777;28;20049;-69
2022/11/26 03:35:21;;;;;;;41.35;14.43;;;4.50;99.90;;;;;;5000011;28;20092;-69
2022/11/26 03:37:47;;;;;;;35.08;14.13;;;4.50;99.90;;;;;;4997386;28;20038;-69
2022/11/26 03:40:15;;;;;;;30.42;13.50;;;4.50;99.90;;;;;;5005872;28;20053;-69
2022/11/26 03:42:41;;;;;;;26.80;12.15;;;4.60;99.90;;;;;;5000461;28;20038;-69
2022/11/26 03:45:07;;;;;;;31.83;13.70;;;4.60;99.90;;;;;;5003397;28;20061;-69
2022/11/26 03:47:33;;;;;;;29.75;14.00;;;4.60;99.90;;;;;;5003503;28;20038;-69
2022/11/26 03:49:58;;;;;;;30.75;13.30;;;4.60;99.90;;;;;;5022628;28;20033;-69
2022/11/26 03:52:24;;;;;;;31.60;13.82;;;4.60;99.90;;;;;;5005195;28;20577;-69
2022/11/26 03:54:49;;;;;;;36.45;14.57;;;4.60;99.90;;;;;;5006481;28;20544;-70
2022/11/26 03:57:15;;;;;;;34.45;13.52;;;4.60;99.90;;;;;;5016594;28;20045;-69
2022/11/26 03:59:41;;;;;;;36.45;15.00;;;4.60;99.90;;;;;;5006777;28;20046;-69
2022/11/26 04:02:07;;;;;;;32.17;13.80;;;4.60;99.90;;;;;;5001493;28;20030;-69
2022/11/26 04:04:32;;;;;;;30.40;14.05;;;4.60;99.90;;;;;;5006379;28;20033;-69
2022/11/26 04:06:58;;;;;;;37.17;13.80;;;4.60;99.90;;;;;;5004903;28;20033;-69
2022/11/26 04:09:24;;;;;;;34.45;13.65;;;4.50;99.90;;;;;;5004983;28;20050;-69
2022/11/26 04:11:49;;;;;;;31.63;14.45;;;4.60;99.90;;;;;;5002889;28;20034;-69
2022/11/26 04:14:15;;;;;;;34.22;14.68;;;4.60;99.90;;;;;;5001138;28;20041;-69
2022/11/26 04:16:40;;;;;;;30.23;13.00;;;4.60;99.90;;;;;;5019498;28;20455;-69
2022/11/26 04:19:06;;;;;;;34.50;15.00;;;4.60;99.90;;;;;;5007684;28;20033;-69
2022/11/26 04:21:31;;;;;;;35.70;14.75;;;4.60;99.90;;;;;;4990124;28;20393;-69
2022/11/26 04:23:57;;;;;;;41.53;15.52;;;4.60;99.90;;;;;;5003520;28;20478;-69
2022/11/26 04:26:22;;;;;;;33.05;13.85;;;4.70;99.90;;;;;;5004851;28;20095;-69
2022/11/26 04:28:49;;;;;;;32.75;14.63;;;4.60;99.90;;;;;;5017872;28;20038;-69
2022/11/26 04:31:15;;;;;;;35.65;14.93;;;4.60;99.90;;;;;;5003264;28;20033;-69
2022/11/26 04:33:41;;;;;;;36.97;14.73;;;4.60;99.90;;;;;;5007066;28;20041;-69
2022/11/26 04:36:07;;;;;;;35.20;14.70;;;4.60;99.90;;;;;;5002836;28;20038;-69
2022/11/26 04:38:33;;;;;;;38.25;15.82;;;4.60;99.90;;;;;;5000378;28;20436;-69
2022/11/26 04:40:58;;;;;;;29.25;14.35;;;4.60;99.90;;;;;;5003724;28;20042;-69
2022/11/26 04:43:24;;;;;;;33.13;14.77;;;4.60;99.90;;;;;;5003556;28;20490;-69
2022/11/26 04:45:49;;;;;;;29.30;13.88;;;4.60;99.90;;;;;;5004582;28;20091;-69
2022/11/26 04:48:15;;;;;;;27.55;12.77;;;4.50;99.90;;;;;;4995126;28;20572;-69
2022/11/26 04:50:40;;;;;;;35.42;14.05;;;4.50;99.90;;;;;;5008095;28;20431;-69
2022/11/26 04:53:06;;;;;;;31.40;14.70;;;4.50;99.90;;;;;;5020177;28;20064;-69
2022/11/26 04:55:31;;;;;;;34.20;13.45;;;4.50;99.90;;;;;;5005233;28;20087;-69
2022/11/26 04:57:57;;;;;;;35.35;14.00;;;4.50;99.90;;;;;;5004822;28;20081;-69
2022/11/26 05:00:22;;;;;;;31.17;13.50;;;4.40;99.90;;;;;;5000154;28;20379;-69
2022/11/26 05:02:48;;;;;;;27.02;13.23;;;4.40;99.90;;;;;;5006564;28;20121;-69
2022/11/26 05:05:14;;;;;;;30.58;15.35;;;4.40;99.90;;;;;;4998599;28;20059;-69
2022/11/26 05:07:39;;;;;;;29.20;16.10;;;4.40;99.90;;;;;;4997208;28;20390;-69
2022/11/26 05:10:07;;;;;;;35.25;15.50;;;4.40;99.90;;;;;;5003871;28;20034;-69
2022/11/26 05:12:33;;;;;;;36.42;15.90;;;4.40;99.90;;;;;;5004220;28;20037;-69
2022/11/26 05:14:58;;;;;;;36.45;15.95;;;4.40;99.90;;;;;;4999414;28;20042;-69
2022/11/26 05:17:24;;;;;;;36.42;17.67;;;4.40;99.90;;;;;;4999513;28;20049;-69
2022/11/26 05:19:49;;;;;;;33.30;16.15;;;4.40;99.90;;;;;;4999671;28;20037;-69
2022/11/26 05:22:15;;;;;;;40.65;17.38;;;4.40;99.90;;;;;;5004864;28;20045;-69
2022/11/26 05:24:40;;;;;;;38.38;17.73;;;4.30;99.90;;;;;;5000678;28;20042;-69
2022/11/26 05:27:06;;;;;;;33.95;15.88;;;4.30;99.90;;;;;;5007149;28;20080;-69
2022/11/26 05:29:32;;;;;;;38.38;18.00;;;4.30;99.90;;;;;;5007804;28;20087;-69
2022/11/26 05:31:57;;;;;;;42.10;16.98;;;4.30;99.90;;;;;;5008357;28;20044;-70
2022/11/26 05:34:23;;;;;;;38.97;17.75;;;4.30;99.90;;;;;;5005338;28;20052;-69
2022/11/26 05:36:48;;;;;;;34.75;17.50;;;4.20;99.90;;;;;;5006235;28;20516;-69
2022/11/26 05:39:15;;;;;;;39.35;19.23;;;4.20;99.90;;;;;;5003722;28;22362;-70
2022/11/26 05:41:41;;;;;;;35.67;16.75;;;4.20;99.90;;;;;;5003084;28;20509;-69
2022/11/26 05:44:06;;;;;;;31.42;17.15;;;4.20;99.90;;;;;;5009569;28;20531;-70
2022/11/26 05:46:32;;;;;;;32.25;16.38;;;4.20;99.90;;;;;;5005159;28;20125;-70
2022/11/26 05:48:58;;;;;;;53.83;18.95;;;4.20;99.90;;;;;;5007289;28;20125;-69
2022/11/26 05:51:23;;;;;;;43.85;18.35;;;4.20;99.90;;;;;;5009954;28;20030;-69
2022/11/26 05:53:49;;;;;;;63.85;18.88;;;4.20;99.90;;;;;;5014368;28;20040;-70
2022/11/26 05:56:14;;;;;;;41.88;16.92;;;4.10;99.90;;;;;;4998219;28;20042;-70
2022/11/26 05:58:43;;;;;;;54.17;19.08;;;4.10;99.90;;;;;;5019409;28;20134;-70
2022/11/26 06:01:09;;;;;;;43.00;16.75;;;4.10;99.90;;;;;;5018959;28;20551;-70
2022/11/26 06:03:36;;;;;;;40.78;17.77;;;4.10;99.90;;;;;;4995490;28;20069;-69
2022/11/26 06:06:02;;;;;;;24.23;14.95;;;4.10;99.90;;;;;;5003960;28;20045;-69
2022/11/26 06:08:28;;;;;;;34.67;15.50;;;4.10;99.90;;;;;;5008753;28;20540;-70
2022/11/26 06:10:54;;;;;;;29.52;16.13;;;4.10;99.90;;;;;;4988907;28;20030;-70
2022/11/26 06:13:19;;;;;;;28.90;15.02;;;4.00;99.90;;;;;;5002322;28;20152;-69
2022/11/26 06:15:45;;;;;;;27.00;15.88;;;4.00;99.90;;;;;;5007788;28;20113;-69
2022/11/26 06:18:10;;;;;;;30.42;14.98;;;4.00;99.90;;;;;;4998093;28;20108;-69
2022/11/26 06:20:36;;;;;;;25.15;14.80;;;4.00;99.90;;;;;;5002907;28;20038;-69
2022/11/26 06:23:02;;;;;;;31.20;15.75;;;4.00;99.90;;;;;;5007461;28;20046;-70
2022/11/26 06:25:28;;;;;;;32.92;16.77;;;4.00;99.90;;;;;;5007161;28;20045;-70
2022/11/26 06:27:54;;;;;;;27.20;15.30;;;4.00;99.90;;;;;;5001520;28;20046;-70
2022/11/26 06:30:20;;;;;;;39.65;18.10;;;4.00;99.90;;;;;;5003769;28;20045;-70
2022/11/26 06:32:46;;;;;;;39.53;16.42;;;4.00;99.90;;;;;;5005961;28;20523;-69
2022/11/26 06:35:12;;;;;;;58.42;19.73;;;4.00;99.90;;;;;;5002765;28;20065;-70
2022/11/26 06:37:37;;;;;;;28.27;15.63;;;4.00;99.90;;;;;;5004360;28;20061;-70
2022/11/26 06:40:03;;;;;;;32.28;16.17;;;4.00;99.90;;;;;;5004791;28;20034;-69
2022/11/26 06:42:29;;;;;;;30.80;16.65;;;4.00;99.90;;;;;;5000281;28;20057;-69
2022/11/26 06:44:55;;;;;;;56.92;19.48;;;4.00;99.90;;;;;;5007446;28;20050;-69
2022/11/26 06:47:20;;;;;;;45.90;18.33;;;4.00;99.90;;;;;;5005726;28;20120;-71
2022/11/26 06:49:46;;;;;;;31.52;15.43;;;4.00;99.90;;;;;;5008279;28;20030;-69
2022/11/26 06:52:12;;;;;;;33.63;16.23;;;4.00;99.90;;;;;;5002411;28;20041;-69
2022/11/26 06:54:37;;;;;;;52.33;19.13;;;4.00;99.90;;;;;;5004346;28;20045;-70
2022/11/26 06:57:03;;;;;;;46.70;17.40;;;4.00;99.90;;;;;;5002964;28;20072;-70
2022/11/26 06:59:29;;;;;;;31.08;16.85;;;4.00;99.90;;;;;;5006423;28;20038;-70
2022/11/26 07:01:54;;;;;;;80.15;21.50;;;4.10;99.90;;;;;;4997850;28;20057;-70
2022/11/26 07:04:20;;;;;;;49.83;18.15;;;4.10;99.90;;;;;;5006040;28;20052;-70
2022/11/26 07:06:45;;;;;;;38.35;18.70;;;4.10;99.90;;;;;;5007017;28;20045;-69
2022/11/26 07:09:12;;;;;;;47.70;18.38;;;4.10;99.90;;;;;;5008371;28;20038;-70
2022/11/26 07:11:38;;;;;;;34.22;16.67;;;4.10;99.90;;;;;;5019308;28;20040;-70
2022/11/26 07:14:05;;;;;;;48.67;18.33;;;4.10;99.90;;;;;;5004588;28;20660;-69
2022/11/26 07:16:31;;;;;;;48.28;19.35;;;4.10;99.90;;;;;;5001824;28;20034;-69
2022/11/26 07:18:58;;;;;;;51.67;19.25;;;4.10;99.90;;;;;;5006119;28;20084;-69
2022/11/26 07:21:24;;;;;;;39.60;18.33;;;4.20;99.90;;;;;;5007132;28;20402;-70
2022/11/26 07:23:51;;;;;;;42.28;17.48;;;4.20;99.90;;;;;;4999917;28;20057;-70
2022/11/26 07:26:18;;;;;;;36.88;16.88;;;4.20;99.90;;;;;;5010472;28;20033;-69
2022/11/26 07:28:46;;;;;;;41.05;17.05;;;4.20;99.90;;;;;;5010245;28;20030;-70
2022/11/26 07:31:14;;;;;;;41.42;19.17;;;4.20;99.90;;;;;;5003609;28;20552;-69
2022/11/26 07:33:40;;;;;;;39.30;17.77;;;4.20;99.90;;;;;;5009981;28;20054;-70
2022/11/26 07:36:10;;;;;;;34.50;17.00;;;4.20;99.90;;;;;;4994721;28;20108;-70
2022/11/26 07:38:36;;;;;;;38.33;18.27;;;4.20;99.90;;;;;;4998362;28;20037;-70
2022/11/26 07:41:03;;;;;;;36.40;16.58;;;4.20;99.90;;;;;;5003082;28;20049;-70
2022/11/26 07:43:29;;;;;;;52.40;19.20;;;4.30;99.90;;;;;;4973014;28;20072;-70
2022/11/26 07:45:55;;;;;;;50.15;19.33;;;4.30;99.90;;;;;;5005553;28;20124;-70
2022/11/26 07:48:20;;;;;;;45.13;18.45;;;4.30;99.90;;;;;;5002899;28;20486;-70
2022/11/26 07:50:46;;;;;;;44.95;19.50;;;4.30;99.90;;;;;;5007912;28;20041;-70
2022/11/26 07:53:12;;;;;;;38.97;18.02;;;4.30;99.90;;;;;;5007096;28;20034;-70
2022/11/26 07:55:39;;;;;;;48.30;19.83;;;4.30;99.90;;;;;;5007178;28;20096;-70
2022/11/26 07:58:04;;;;;;;44.90;19.33;;;4.40;99.90;;;;;;5021034;28;20077;-70
2022/11/26 08:00:30;;;;;;;39.95;18.48;;;4.40;99.90;;;;;;5008162;28;20088;-70
2022/11/26 08:02:56;;;;;;;48.00;19.25;;;4.40;99.90;;;;;;5012014;28;20042;-70
2022/11/26 08:05:21;;;;;;;44.33;18.52;;;4.40;99.90;;;;;;5009172;28;20560;-69
2022/11/26 08:07:47;;;;;;;49.80;21.33;;;4.40;99.90;;;;;;4995609;28;20397;-69
2022/11/26 08:10:12;;;;;;;51.72;21.58;;;4.50;99.90;;;;;;5006263;28;20042;-69
2022/11/26 08:12:38;;;;;;;51.20;21.77;;;4.50;99.90;;;;;;5002393;28;20856;-69
2022/11/26 08:15:04;;;;;;;48.22;21.25;;;4.60;99.90;;;;;;5010685;28;20053;-70
2022/11/26 08:17:29;;;;;;;45.60;18.70;;;4.60;99.90;;;;;;5005374;28;20117;-70
2022/11/26 08:19:55;;;;;;;47.10;20.75;;;4.60;99.90;;;;;;5007410;28;20453;-69
2022/11/26 08:22:21;;;;;;;53.72;21.00;;;4.70;99.90;;;;;;5008494;28;20057;-70
2022/11/26 08:24:46;;;;;;;46.63;20.35;;;4.80;99.90;;;;;;5008753;28;20470;-69
2022/11/26 08:27:12;;;;;;;56.55;21.33;;;4.80;99.90;;;;;;5009083;28;20045;-70
2022/11/26 08:29:38;;;;;;;52.65;22.38;;;4.80;99.90;;;;;;5005915;28;20749;-70
2022/11/26 08:32:03;;;;;;;46.58;19.98;;;4.80;99.90;;;;;;5008258;28;20568;-69
2022/11/26 08:34:29;;;;;;;49.72;20.52;;;4.80;99.90;;;;;;4988031;28;20044;-69
2022/11/26 08:36:54;;;;;;;49.80;21.42;;;4.90;99.90;;;;;;5003854;28;20092;-71
2022/11/26 08:39:20;;;;;;;40.70;19.58;;;4.90;99.90;;;;;;5003422;28;20404;-70
2022/11/26 08:41:46;;;;;;;43.70;19.38;;;4.90;99.90;;;;;;5012538;28;20038;-70
2022/11/26 08:44:12;;;;;;;45.28;19.25;;;5.00;99.90;;;;;;5002738;28;20125;-70
2022/11/26 08:46:40;;;;;;;43.80;19.45;;;5.00;99.90;;;;;;5005613;28;20177;-69
2022/11/26 08:49:09;;;;;;;43.03;19.42;;;5.00;99.90;;;;;;5006654;28;20042;-71
2022/11/26 08:51:35;;;;;;;47.72;20.00;;;5.00;99.90;;;;;;4988021;28;20116;-70
2022/11/26 08:54:01;;;;;;;45.22;20.55;;;5.10;99.90;;;;;;5005282;28;20053;-70
2022/11/26 08:56:26;;;;;;;49.30;19.85;;;5.20;99.90;;;;;;5021456;28;20065;-70
2022/11/26 08:58:52;;;;;;;42.67;19.60;;;5.20;99.90;;;;;;5003246;28;20430;-70
2022/11/26 09:01:20;;;;;;;47.15;20.70;;;5.30;99.90;;;;;;5008781;28;20041;-70
2022/11/26 09:03:50;;;;;;;44.05;20.05;;;5.30;99.90;;;;;;5008562;28;20042;-69
2022/11/26 09:06:17;;;;;;;42.72;19.35;;;5.40;99.90;;;;;;5009558;28;20639;-70
2022/11/26 09:11:28;;;;;;;40.90;18.70;;;5.50;99.90;;;;;;5008767;28;20073;-69
2022/11/26 09:13:54;;;;;;;42.78;19.30;;;5.50;99.90;;;;;;5008921;28;20044;-69
2022/11/26 09:16:21;;;;;;;44.33;18.48;;;5.50;99.90;;;;;;5011112;28;20068;-70
2022/11/26 09:18:49;;;;;;;41.80;17.80;;;5.60;99.90;;;;;;5006727;28;20401;-69
2022/11/26 09:21:14;;;;;;;44.35;18.77;;;5.60;99.90;;;;;;5009652;28;20060;-70
2022/11/26 09:23:40;;;;;;;40.17;17.55;;;5.60;99.90;;;;;;5008891;28;20128;-71
2022/11/26 09:26:05;;;;;;;39.47;18.10;;;5.70;99.90;;;;;;5008815;28;20117;-70
2022/11/26 09:28:31;;;;;;;35.20;17.85;;;5.70;99.90;;;;;;5007762;28;20149;-69
2022/11/26 09:30:57;;;;;;;43.10;18.85;;;5.80;99.90;;;;;;5010754;28;20052;-69
2022/11/26 09:33:23;;;;;;;44.67;18.98;;;5.80;99.90;;;;;;5029665;28;20041;-70
2022/11/26 09:35:48;;;;;;;42.10;19.75;;;5.80;99.90;;;;;;5012448;28;20049;-70
2022/11/26 09:38:14;;;;;;;41.88;18.95;;;5.90;99.90;;;;;;5010662;28;20045;-71
2022/11/26 09:40:48;;;;;;;42.20;20.88;;;5.90;99.90;;;;;;5011486;28;20077;-69
2022/11/26 09:43:35;;;;;;;51.00;19.50;;;5.90;99.90;;;;;;5012802;28;20064;-69
2022/11/26 09:46:02;;;;;;;45.30;20.27;;;6.00;99.90;;;;;;5012584;28;20129;-69
2022/11/26 09:48:29;;;;;;;48.75;20.98;;;6.00;99.90;;;;;;5010622;28;20092;-69
2022/11/26 09:51:03;;;;;;;48.35;21.17;;;6.10;99.90;;;;;;5012452;28;20041;-69
2022/11/26 09:53:38;;;;;;;38.65;19.60;;;6.10;99.90;;;;;;5014957;28;20121;-69
2022/11/26 09:56:12;;;;;;;49.17;23.25;;;6.20;99.90;;;;;;5012850;28;20053;-67
2022/11/26 09:59:05;;;;;;;55.60;22.20;;;6.20;99.90;;;;;;5028053;28;20045;-67
2022/11/26 10:01:33;;;;;;;55.95;23.15;;;6.20;99.90;;;;;;5010289;28;20062;-67
2022/11/26 10:03:59;;;;;;;55.28;23.95;;;6.30;99.90;;;;;;5011998;28;20096;-67
2022/11/26 10:06:39;;;;;;;58.10;24.70;;;6.30;99.90;;;;;;5013332;28;20080;-67
2022/11/26 10:09:25;;;;;;;53.80;23.02;;;6.30;99.90;;;;;;5011378;28;20355;-67
2022/11/26 10:12:18;;;;;;;58.78;23.55;;;6.40;99.90;;;;;;5011860;28;20037;-67
2022/11/26 10:15:03;;;;;;;54.42;24.45;;;6.50;99.90;;;;;;5012462;28;20096;-66
2022/11/26 10:17:29;;;;;;;49.83;23.55;;;6.50;99.90;;;;;;5012507;28;20485;-67
2022/11/26 10:20:18;;;;;;;55.75;24.75;;;6.50;99.90;;;;;;4991383;28;20085;-67
2022/11/26 10:22:53;;;;;;;58.13;25.90;;;6.50;99.90;;;;;;5008877;28;20052;-66
2022/11/26 10:25:21;;;;;;;58.45;25.80;;;6.50;99.90;;;;;;5011376;28;20048;-67
2022/11/26 10:27:48;;;;;;;70.13;27.25;;;6.60;99.90;;;;;;5010064;28;20050;-67
2022/11/26 10:30:24;;;;;;;62.55;26.88;;;6.60;99.90;;;;;;5012976;28;20095;-67
2022/11/26 10:32:51;;;;;;;66.18;27.10;;;6.60;99.90;;;;;;5011271;28;20041;-67
2022/11/26 10:35:22;;;;;;;75.85;28.02;;;6.70;99.90;;;;;;5013016;28;20042;-68
2022/11/26 10:37:48;;;;;;;69.20;28.73;;;6.70;99.90;;;;;;5008366;28;20168;-67
2022/11/26 10:40:16;;;;;;;65.38;29.60;;;6.80;99.90;;;;;;5010962;28;20034;-66
2022/11/26 10:42:46;;;;;;;79.10;28.58;;;6.80;99.90;;;;;;5011624;28;20045;-67
2022/11/26 10:45:18;;;;;;;69.70;28.98;;;7.00;99.90;;;;;;5010778;28;20402;-66
2022/11/26 10:47:43;;;;;;;68.13;29.20;;;7.00;99.90;;;;;;4993824;28;20050;-68
2022/11/26 10:50:09;;;;;;;79.07;30.27;;;7.10;99.90;;;;;;5011563;28;20048;-67
2022/11/26 10:52:38;;;;;;;80.95;30.60;;;7.10;99.90;;;;;;5011789;28;20038;-68
2022/11/26 10:55:06;;;;;;;68.10;28.70;;;7.20;99.90;;;;;;5012911;28;20717;-67
2022/11/26 10:57:34;;;;;;;77.03;29.25;;;7.10;99.90;;;;;;5001590;28;20072;-67
2022/11/26 11:00:00;;;;;;;82.38;29.98;;;7.10;99.90;;;;;;4993052;28;20050;-66
2022/11/26 11:02:37;;;;;;;86.43;30.40;;;7.20;99.90;;;;;;5008445;28;20048;-66
2022/11/26 11:05:06;;;;;;;72.68;28.15;;;7.20;99.90;;;;;;5011235;28;20038;-66
2022/11/26 11:07:32;;;;;;;67.10;27.10;;;7.20;99.90;;;;;;5012443;28;20037;-66
2022/11/26 11:10:07;;;;;;;74.85;28.67;;;7.20;99.90;;;;;;5009313;28;20034;-67
2022/11/26 11:12:33;;;;;;;70.60;27.67;;;7.20;99.90;;;;;;5010219;28;20137;-67
2022/11/26 11:15:16;;;;;;;75.47;28.25;;;7.20;99.90;;;;;;5011126;28;20049;-66
2022/11/26 11:17:43;;;;;;;64.22;27.80;;;7.30;99.90;;;;;;5008919;28;20442;-66
2022/11/26 11:20:15;;;;;;;68.25;29.02;;;7.30;99.90;;;;;;5027586;28;20073;-66
2022/11/26 11:22:44;;;;;;;72.07;29.75;;;7.30;99.90;;;;;;5011140;28;20063;-66
2022/11/26 11:25:22;;;;;;;77.53;29.23;;;7.30;99.90;;;;;;5009484;28;20080;-66
2022/11/26 11:27:48;;;;;;;80.20;30.02;;;7.30;99.90;;;;;;4994982;28;20050;-66
2022/11/26 11:30:28;;;;;;;72.20;29.77;;;7.40;99.90;;;;;;5010645;28;20044;-67
2022/11/26 11:32:56;;;;;;;;;;;7.40;99.90;;;;;;5008612;28;20405;-66
2022/11/26 11:35:23;;;;;;;74.82;28.67;;;7.40;99.90;;;;;;5043293;28;19924;-66
2022/11/26 11:37:53;;;;;;;67.97;29.17;;;7.40;99.90;;;;;;5042665;28;20405;-66
2022/11/26 11:40:26;;;;;;;78.32;29.17;;;7.40;99.90;;;;;;5011312;28;20046;-66
2022/11/26 11:42:56;;;;;;;71.38;28.80;;;7.50;99.90;;;;;;5009494;28;20042;-66
2022/11/26 11:45:32;;;;;;;71.00;27.67;;;7.50;99.90;;;;;;5009458;28;20050;-66
2022/11/26 11:48:18;;;;;;;83.30;29.67;;;7.60;99.90;;;;;;5010407;28;20067;-66
2022/11/26 11:51:10;;;;;;;65.90;27.65;;;7.60;99.90;;;;;;5009286;28;20125;-66
2022/11/26 11:53:49;;;;;;;70.07;28.27;;;7.60;99.90;;;;;;5010017;28;20042;-66
2022/11/26 11:56:25;;;;;;;69.20;28.92;;;7.70;99.90;;;;;;5012381;28;20042;-67
2022/11/26 11:59:12;;;;;;;67.50;27.52;;;7.70;99.90;;;;;;5010665;28;20072;-66
2022/11/26 12:02:06;;;;;;;71.28;27.85;;;7.70;99.90;;;;;;5009937;28;20040;-65
2022/11/26 12:05:14;;;;;;;68.25;26.70;;;7.80;99.90;;;;;;5012262;28;20041;-66
2022/11/26 12:08:00;;;;;;;65.57;28.13;;;7.70;99.90;;;;;;5010930;28;20125;-66
2022/11/26 12:10:35;;;;;;;69.40;28.35;;;7.70;99.90;;;;;;4991056;28;20565;-66
2022/11/26 12:13:04;;;;;;;58.95;26.35;;;7.70;99.90;;;;;;4991079;28;20053;-66
2022/11/26 12:15:37;;;;;;;73.28;25.23;;;7.70;99.90;;;;;;4990886;28;20046;-66
2022/11/26 12:18:20;;;;;;;58.05;25.38;;;7.80;99.90;;;;;;5001964;28;20046;-66
2022/11/26 12:21:02;;;;;;;64.22;25.45;;;7.70;99.90;;;;;;5011584;28;20117;-66
2022/11/26 12:23:55;;;;;;;58.13;23.70;;;7.80;99.90;;;;;;5010897;28;20050;-66
2022/11/26 12:26:32;;;;;;;69.43;26.05;;;7.80;99.90;;;;;;5011383;28;20038;-65
2022/11/26 12:29:10;;;;;;;66.68;24.98;;;7.80;99.90;;;;;;5008808;28;20096;-66
2022/11/26 12:31:42;;;;;;;63.42;25.15;;;7.80;99.90;;;;;;5008718;28;20397;-65
2022/11/26 12:34:28;;;;;;;60.58;24.92;;;7.90;99.90;;;;;;5009742;28;20053;-66
2022/11/26 12:37:20;;;;;;;58.08;23.70;;;7.80;99.90;;;;;;5010459;28;20070;-65
2022/11/26 12:40:05;;;;;;;57.10;24.70;;;7.90;99.90;;;;;;5006960;28;20061;-65
2022/11/26 12:42:45;;;;;;;62.90;24.38;;;7.90;99.90;;;;;;5011404;28;20081;-68
2022/11/26 12:45:52;;;;;;;60.25;24.67;;;8.00;99.90;;;;;;5011049;28;20112;-68
2022/11/26 12:48:32;;;;;;;59.55;23.83;;;8.00;99.90;;;;;;4991757;28;20037;-68
2022/11/26 12:51:10;;;;;;;61.97;23.98;;;8.00;99.90;;;;;;5009323;28;20474;-68